createdAt,value
2018-12-22T00:01:22.664Z,12.50
2018-12-22T00:03:50.947Z,12.60
2018-12-22T00:06:19.215Z,12.60
2018-12-22T00:08:47.510Z,12.70
2018-12-22T00:11:15.843Z,12.70
2018-12-22T00:13:44.134Z,12.70
2018-12-22T00:16:12.412Z,12.70
2018-12-22T00:18:40.688Z,12.70
2018-12-22T00:21:08.987Z,12.70
2018-12-22T00:23:37.431Z,12.70
2018-12-22T00:26:05.694Z,12.70
2018-12-22T00:28:33.958Z,12.70
2018-12-22T00:31:02.264Z,12.70
2018-12-22T00:33:30.555Z,12.70
2018-12-22T00:35:58.822Z,12.60
2018-12-22T00:38:27.110Z,12.60
2018-12-22T00:40:55.576Z,12.70
2018-12-22T00:43:23.827Z,12.70
2018-12-22T00:45:52.569Z,12.80
2018-12-22T00:48:20.830Z,12.70
2018-12-22T00:50:49.112Z,12.70
2018-12-22T00:53:17.402Z,12.70
2018-12-22T00:55:45.832Z,12.70
2018-12-22T00:58:14.084Z,12.60
2018-12-22T01:00:42.504Z,12.50
2018-12-22T01:03:10.751Z,12.60
2018-12-22T01:05:39.011Z,12.60
2018-12-22T01:08:07.675Z,12.70
2018-12-22T01:10:35.934Z,12.80
2018-12-22T01:13:04.667Z,12.80
2018-12-22T01:15:32.954Z,12.80
2018-12-22T01:18:01.215Z,12.80
2018-12-22T01:20:29.494Z,12.90
2018-12-22T01:22:57.894Z,12.80
2018-12-22T01:25:26.180Z,12.90
2018-12-22T01:27:54.450Z,12.90
2018-12-22T01:30:23.393Z,13.00
2018-12-22T01:32:51.651Z,13.00
2018-12-22T01:35:19.930Z,12.80
2018-12-22T01:37:48.219Z,12.80
2018-12-22T01:40:16.482Z,12.90
2018-12-22T01:42:44.762Z,12.90
2018-12-22T01:45:13.047Z,12.90
2018-12-22T01:47:41.315Z,13.00
2018-12-22T01:50:09.667Z,12.90
2018-12-22T01:52:38.373Z,12.90
2018-12-22T01:55:07.214Z,13.00
2018-12-22T01:57:35.479Z,13.00
2018-12-22T02:00:05.900Z,12.90
2018-12-22T02:02:34.168Z,12.90
2018-12-22T02:05:02.522Z,12.90
2018-12-22T02:07:30.840Z,12.90
2018-12-22T02:09:59.104Z,12.90
2018-12-22T02:12:27.377Z,12.90
2018-12-22T02:14:56.427Z,12.90
2018-12-22T02:17:24.710Z,12.80
2018-12-22T02:19:52.991Z,12.80
2018-12-22T02:22:21.281Z,12.70
2018-12-22T02:24:49.659Z,12.80
2018-12-22T02:27:17.933Z,12.80
2018-12-22T02:29:46.216Z,12.80
2018-12-22T02:32:14.472Z,12.80
2018-12-22T02:34:42.738Z,12.80
2018-12-22T02:37:11.459Z,12.70
2018-12-22T02:39:39.734Z,12.70
2018-12-22T02:42:07.987Z,12.70
2018-12-22T02:44:36.294Z,12.80
2018-12-22T02:47:04.572Z,12.90
2018-12-22T02:49:32.842Z,12.90
2018-12-22T02:52:01.131Z,12.90
2018-12-22T02:54:29.400Z,12.90
2018-12-22T02:56:57.670Z,13.00
2018-12-22T02:59:26.335Z,13.00
2018-12-22T03:01:54.594Z,13.00
2018-12-22T03:04:22.877Z,13.00
2018-12-22T03:06:51.158Z,13.00
2018-12-22T03:09:19.428Z,13.00
2018-12-22T03:11:47.690Z,13.00
2018-12-22T03:14:16.027Z,13.00
2018-12-22T03:16:44.555Z,13.00
2018-12-22T03:19:13.215Z,13.00
2018-12-22T03:21:41.668Z,13.00
2018-12-22T03:24:09.978Z,12.90
2018-12-22T03:26:38.239Z,13.00
2018-12-22T03:29:15.213Z,13.00
2018-12-22T03:31:36.812Z,13.00
2018-12-22T03:34:05.077Z,13.10
2018-12-22T03:36:33.364Z,13.00
2018-12-22T03:39:01.636Z,13.00
2018-12-22T03:41:29.906Z,13.10
2018-12-22T03:43:58.579Z,13.10
2018-12-22T03:46:26.846Z,13.10
2018-12-22T03:48:55.119Z,13.10
2018-12-22T03:51:23.552Z,13.10
2018-12-22T03:53:51.799Z,13.10
2018-12-22T03:56:20.058Z,13.10
2018-12-22T03:58:48.356Z,13.20
2018-12-22T04:01:16.618Z,13.10
2018-12-22T04:03:44.898Z,13.20
2018-12-22T04:06:13.528Z,13.20
2018-12-22T04:08:41.820Z,13.20
2018-12-22T04:11:10.089Z,13.20
2018-12-22T04:13:38.378Z,13.20
2018-12-22T04:16:06.638Z,13.10
2018-12-22T04:18:35.264Z,13.10
2018-12-22T04:21:03.575Z,13.00
2018-12-22T04:23:31.846Z,13.00
2018-12-22T04:26:00.123Z,13.00
2018-12-22T04:28:28.836Z,13.00
2018-12-22T04:30:57.178Z,13.00
2018-12-22T04:33:25.450Z,13.00
2018-12-22T04:35:53.735Z,12.90
2018-12-22T04:38:21.999Z,13.00
2018-12-22T04:40:50.268Z,12.90
2018-12-22T04:43:18.550Z,12.90
2018-12-22T04:45:46.823Z,12.90
2018-12-22T04:48:15.083Z,13.00
2018-12-22T04:50:43.818Z,13.00
2018-12-22T04:53:12.079Z,13.00
2018-12-22T04:55:40.344Z,13.00
2018-12-22T04:58:08.626Z,13.10
2018-12-22T05:00:37.251Z,13.10
2018-12-22T05:03:05.482Z,13.10
2018-12-22T05:05:33.774Z,13.10
2018-12-22T05:08:02.039Z,13.00
2018-12-22T05:10:30.312Z,12.90
2018-12-22T05:12:59.051Z,12.80
2018-12-22T05:15:27.322Z,12.80
2018-12-22T05:17:55.583Z,12.70
2018-12-22T05:20:24.161Z,12.80
2018-12-22T05:22:52.431Z,12.70
2018-12-22T05:25:20.698Z,12.70
2018-12-22T05:27:49.034Z,12.60
2018-12-22T05:30:17.294Z,12.50
2018-12-22T05:32:45.566Z,12.50
2018-12-22T05:35:14.154Z,12.40
2018-12-22T05:37:42.412Z,12.40
2018-12-22T05:40:10.675Z,12.40
2018-12-22T05:42:38.958Z,12.50
2018-12-22T05:45:07.227Z,12.50
2018-12-22T05:47:35.486Z,12.40
2018-12-22T05:50:05.746Z,12.40
2018-12-22T05:52:34.011Z,12.50
2018-12-22T05:55:02.275Z,12.50
2018-12-22T05:57:31.025Z,12.60
2018-12-22T06:00:00.723Z,12.60
2018-12-22T06:02:29.338Z,12.60
2018-12-22T06:04:57.631Z,12.60
2018-12-22T06:07:25.895Z,12.60
2018-12-22T06:09:54.162Z,12.50
2018-12-22T06:12:22.460Z,12.50
2018-12-22T06:14:50.746Z,12.50
2018-12-22T06:17:19.159Z,12.40
2018-12-22T06:19:47.742Z,12.50
2018-12-22T06:22:16.170Z,12.50
2018-12-22T06:24:44.447Z,12.50
2018-12-22T06:27:12.730Z,12.60
2018-12-22T06:29:41.002Z,12.60
2018-12-22T06:32:09.271Z,12.60
2018-12-22T06:34:37.586Z,12.50
2018-12-22T06:37:05.856Z,12.50
2018-12-22T06:39:34.118Z,12.50
2018-12-22T06:42:02.773Z,12.60
2018-12-22T06:44:31.111Z,12.70
2018-12-22T06:46:59.405Z,12.70
2018-12-22T06:49:27.757Z,12.70
2018-12-22T06:51:56.218Z,12.80
2018-12-22T06:54:24.543Z,12.70
2018-12-22T06:56:52.806Z,12.70
2018-12-22T06:59:21.074Z,12.80
2018-12-22T07:01:49.334Z,12.80
2018-12-22T07:04:17.969Z,12.80
2018-12-22T07:06:46.239Z,12.80
2018-12-22T07:09:14.499Z,12.90
2018-12-22T07:11:42.791Z,12.90
2018-12-22T07:14:11.047Z,12.90
2018-12-22T07:16:39.319Z,12.80
2018-12-22T07:19:07.598Z,12.80
2018-12-22T07:21:35.873Z,12.80
2018-12-22T07:24:04.583Z,12.80
2018-12-22T07:26:32.942Z,12.80
2018-12-22T07:29:01.367Z,12.90
2018-12-22T07:31:29.626Z,12.80
2018-12-22T07:33:57.910Z,12.90
2018-12-22T07:36:26.187Z,12.80
2018-12-22T07:38:54.470Z,12.90
2018-12-22T07:41:22.739Z,12.90
2018-12-22T07:43:51.003Z,12.90
2018-12-22T07:46:19.263Z,12.90
2018-12-22T07:48:47.786Z,12.90
2018-12-22T07:51:16.226Z,12.90
2018-12-22T07:53:44.494Z,12.90
2018-12-22T07:56:12.864Z,12.90
2018-12-22T07:58:41.298Z,12.90
2018-12-22T08:01:09.638Z,13.00
2018-12-22T08:03:37.947Z,12.80
2018-12-22T08:06:06.237Z,12.50
2018-12-22T08:08:34.502Z,12.30
2018-12-22T08:11:03.379Z,12.30
2018-12-22T08:13:31.635Z,12.30
2018-12-22T08:15:59.902Z,12.30
2018-12-22T08:18:28.178Z,12.40
2018-12-22T08:20:56.462Z,12.50
2018-12-22T08:23:24.779Z,12.50
2018-12-22T08:25:53.348Z,12.60
2018-12-22T08:28:21.610Z,12.60
2018-12-22T08:30:49.880Z,12.60
2018-12-22T08:33:18.331Z,12.70
2018-12-22T08:35:46.600Z,12.80
2018-12-22T08:38:14.967Z,12.90
2018-12-22T08:40:43.255Z,12.90
2018-12-22T08:43:11.517Z,12.90
2018-12-22T08:45:39.774Z,12.90
2018-12-22T08:48:08.070Z,12.90
2018-12-22T08:50:37.263Z,12.90
2018-12-22T08:53:05.526Z,12.90
2018-12-22T08:55:34.123Z,12.90
2018-12-22T08:58:02.387Z,13.00
2018-12-22T09:00:30.726Z,12.90
2018-12-22T09:02:59.037Z,12.90
2018-12-22T09:05:27.303Z,12.90
2018-12-22T09:07:55.567Z,12.90
2018-12-22T09:10:24.057Z,12.90
2018-12-22T09:12:52.324Z,13.00
2018-12-22T09:15:20.583Z,12.90
2018-12-22T09:17:49.143Z,13.00
2018-12-22T09:20:17.430Z,12.90
2018-12-22T09:22:45.702Z,13.00
2018-12-22T09:25:13.991Z,13.00
2018-12-22T09:27:42.679Z,12.90
2018-12-22T09:30:11.159Z,12.90
2018-12-22T09:32:39.450Z,12.90
2018-12-22T09:35:07.811Z,12.90
2018-12-22T09:37:36.076Z,12.80
2018-12-22T09:40:05.806Z,12.70
2018-12-22T09:42:34.071Z,12.70
2018-12-22T09:45:02.355Z,12.70
2018-12-22T09:47:30.670Z,12.60
2018-12-22T09:49:58.934Z,12.40
2018-12-22T09:52:27.197Z,12.30
2018-12-22T09:54:55.623Z,12.30
2018-12-22T09:57:23.871Z,12.40
2018-12-22T09:59:52.137Z,12.40
2018-12-22T10:02:20.658Z,12.50
2018-12-22T10:04:48.932Z,12.60
2018-12-22T10:07:17.207Z,12.60
2018-12-22T10:09:45.735Z,12.70
2018-12-22T10:12:14.003Z,12.90
2018-12-22T10:14:42.259Z,13.20
2018-12-22T10:17:10.551Z,13.30
2018-12-22T10:19:38.811Z,13.20
2018-12-22T10:22:07.074Z,13.00
2018-12-22T10:24:35.476Z,12.70
2018-12-22T10:27:03.731Z,12.40
2018-12-22T10:29:32.633Z,12.10
2018-12-22T10:32:00.911Z,12.00
2018-12-22T10:34:29.961Z,12.00
2018-12-22T10:36:58.223Z,12.10
2018-12-22T10:39:26.519Z,12.10
2018-12-22T10:41:55.654Z,12.20
2018-12-22T10:44:24.051Z,12.30
2018-12-22T10:46:52.387Z,12.40
2018-12-22T10:49:20.698Z,12.50
2018-12-22T10:51:48.981Z,12.60
2018-12-22T10:54:17.279Z,12.70
2018-12-22T10:56:45.717Z,13.00
2018-12-22T10:59:13.966Z,13.00
2018-12-22T11:01:42.323Z,13.00
2018-12-22T11:04:10.672Z,13.10
2018-12-22T11:06:38.939Z,13.10
2018-12-22T11:09:09.675Z,13.10
2018-12-22T11:11:37.932Z,13.10
2018-12-22T11:14:06.339Z,13.10
2018-12-22T11:16:34.630Z,12.90
2018-12-22T11:19:02.899Z,12.70
2018-12-22T11:21:31.481Z,12.40
2018-12-22T11:23:59.814Z,12.10
2018-12-22T11:26:28.082Z,11.70
2018-12-22T11:28:56.576Z,11.40
2018-12-22T11:31:24.915Z,11.30
2018-12-22T11:33:53.375Z,11.10
2018-12-22T11:36:21.747Z,10.90
2018-12-22T11:38:50.037Z,10.90
2018-12-22T11:41:18.299Z,10.80
2018-12-22T11:43:46.563Z,10.80
2018-12-22T11:46:14.922Z,10.70
2018-12-22T11:48:44.450Z,10.70
2018-12-22T11:51:12.770Z,10.70
2018-12-22T11:53:41.413Z,10.70
2018-12-22T11:56:09.682Z,10.80
2018-12-22T11:58:38.373Z,11.00
2018-12-22T12:01:06.726Z,11.20
2018-12-22T12:03:35.166Z,11.30
2018-12-22T12:06:03.496Z,11.70
2018-12-22T12:08:31.942Z,12.20
2018-12-22T12:11:00.571Z,12.70
2018-12-22T12:13:29.291Z,13.10
2018-12-22T12:16:00.314Z,13.30
2018-12-22T12:18:52.867Z,13.00
2018-12-22T12:21:21.154Z,12.60
2018-12-22T12:23:49.418Z,12.50
2018-12-22T12:26:17.898Z,12.80
2018-12-22T12:28:46.187Z,13.10
2018-12-22T12:31:14.447Z,13.10
2018-12-22T12:33:43.667Z,12.90
2018-12-22T12:36:12.445Z,12.60
2018-12-22T12:38:41.777Z,12.40
2018-12-22T12:41:12.497Z,12.30
2018-12-22T12:43:41.014Z,12.10
2018-12-22T12:46:10.723Z,12.00
2018-12-22T12:48:39.154Z,12.30
2018-12-22T12:51:07.838Z,13.10
2018-12-22T12:53:36.087Z,13.50
2018-12-22T12:56:04.354Z,13.70
2018-12-22T12:58:32.763Z,13.60
2018-12-22T13:01:01.985Z,13.80
2018-12-22T13:03:30.360Z,14.30
2018-12-22T13:05:58.759Z,14.80
2018-12-22T13:08:27.019Z,15.20
2018-12-22T13:10:55.493Z,15.70
2018-12-22T13:13:28.563Z,16.00
2018-12-22T13:15:56.854Z,15.80
2018-12-22T13:18:25.244Z,15.60
2018-12-22T13:20:53.702Z,15.00
2018-12-22T13:23:22.023Z,14.40
2018-12-22T13:25:51.614Z,14.00
2018-12-22T13:28:20.943Z,13.80
2018-12-22T13:30:49.211Z,14.20
2018-12-22T13:33:18.172Z,14.80
2018-12-22T13:35:46.709Z,15.40
2018-12-22T13:38:15.982Z,14.90
2018-12-22T13:40:44.663Z,14.40
2018-12-22T13:43:13.419Z,14.40
2018-12-22T13:45:54.611Z,14.10
2018-12-22T13:48:23.406Z,14.10
2018-12-22T13:50:52.594Z,13.80
2018-12-22T13:53:20.984Z,13.50
2018-12-22T13:55:49.400Z,13.30
2018-12-22T13:58:17.751Z,13.20
2018-12-22T14:00:46.625Z,13.10
2018-12-22T14:03:15.681Z,13.00
2018-12-22T14:05:45.522Z,13.00
2018-12-22T14:08:14.946Z,13.00
2018-12-22T14:10:43.359Z,13.00
2018-12-22T14:13:11.738Z,13.00
2018-12-22T14:15:44.220Z,12.90
2018-12-22T14:18:22.283Z,12.90
2018-12-22T14:20:50.954Z,12.80
2018-12-22T14:23:21.607Z,12.70
2018-12-22T14:25:50.903Z,12.70
2018-12-22T14:28:19.415Z,12.60
2018-12-22T14:30:48.802Z,12.60
2018-12-22T14:33:17.190Z,12.60
2018-12-22T14:35:45.582Z,12.60
2018-12-22T14:38:14.846Z,12.60
2018-12-22T14:40:43.443Z,12.60
2018-12-22T14:43:12.527Z,12.60
2018-12-22T14:45:40.906Z,12.60
2018-12-22T14:48:09.476Z,12.60
2018-12-22T14:50:37.970Z,12.60
2018-12-22T14:53:06.362Z,12.60
2018-12-22T14:55:35.703Z,12.60
2018-12-22T14:58:06.755Z,12.60
2018-12-22T15:00:35.243Z,12.60
2018-12-22T15:03:03.753Z,12.50
2018-12-22T15:05:32.239Z,12.50
2018-12-22T15:08:00.653Z,12.50
2018-12-22T15:10:33.022Z,12.50
2018-12-22T15:13:01.401Z,12.50
2018-12-22T15:15:31.783Z,12.50
2018-12-22T15:18:02.110Z,12.50
2018-12-22T15:20:33.123Z,12.50
2018-12-22T15:23:04.707Z,12.50
2018-12-22T15:25:34.073Z,12.40
2018-12-22T15:28:02.832Z,12.40
2018-12-22T15:33:06.235Z,12.20
2018-12-22T15:35:34.638Z,12.10
2018-12-22T15:38:03.007Z,12.10
2018-12-22T15:40:31.683Z,12.00
2018-12-22T15:43:05.148Z,12.00
2018-12-22T15:45:33.512Z,11.90
2018-12-22T15:48:01.787Z,12.00
2018-12-22T15:50:35.233Z,12.00
2018-12-22T15:53:04.206Z,11.90
2018-12-22T15:55:32.491Z,11.80
2018-12-22T15:58:00.825Z,11.80
2018-12-22T16:00:30.321Z,11.80
2018-12-22T16:02:58.763Z,11.80
2018-12-22T16:05:28.175Z,11.80
2018-12-22T16:07:57.370Z,11.80
2018-12-22T16:10:25.750Z,11.80
2018-12-22T16:12:55.994Z,11.70
2018-12-22T16:15:26.120Z,11.70
2018-12-22T16:17:54.878Z,11.60
2018-12-22T16:20:23.402Z,11.50
2018-12-22T16:22:57.348Z,11.40
2018-12-22T16:25:27.743Z,11.50
2018-12-22T16:27:59.854Z,11.60
2018-12-22T16:30:37.103Z,11.50
2018-12-22T16:33:05.611Z,11.50
2018-12-22T16:35:34.296Z,11.50
2018-12-22T16:38:02.827Z,11.50
2018-12-22T16:40:32.627Z,11.40
2018-12-22T16:43:06.523Z,11.30
2018-12-22T16:45:38.327Z,11.30
2018-12-22T16:48:07.209Z,11.30
2018-12-22T16:50:37.501Z,11.30
2018-12-22T16:53:10.013Z,11.30
2018-12-22T16:55:40.600Z,11.30
2018-12-22T16:58:17.351Z,11.30
2018-12-22T17:01:02.087Z,11.40
2018-12-22T17:03:31.882Z,11.30
2018-12-22T17:06:02.693Z,11.20
2018-12-22T17:08:30.995Z,11.30
2018-12-22T17:11:00.351Z,11.30
2018-12-22T17:13:29.558Z,11.30
2018-12-22T17:15:58.263Z,11.20
2018-12-22T17:18:26.798Z,11.20
2018-12-22T17:21:00.396Z,11.30
2018-12-22T17:23:37.274Z,11.30
2018-12-22T17:26:06.003Z,11.30
2018-12-22T17:28:34.274Z,11.30
2018-12-22T17:31:02.675Z,11.20
2018-12-22T17:33:31.275Z,11.20
2018-12-22T17:35:59.718Z,11.20
2018-12-22T17:38:28.180Z,11.20
2018-12-22T17:40:56.738Z,11.10
2018-12-22T17:43:26.178Z,11.00
2018-12-22T17:45:55.412Z,11.00
2018-12-22T17:48:23.949Z,10.90
2018-12-22T17:50:57.065Z,11.00
2018-12-22T17:53:26.383Z,11.10
2018-12-22T17:55:54.757Z,11.00
2018-12-22T17:58:24.042Z,11.00
2018-12-22T18:00:54.660Z,11.00
2018-12-22T18:03:27.412Z,11.10
2018-12-22T18:05:54.516Z,11.10
2018-12-22T18:08:22.877Z,11.00
2018-12-22T18:10:53.461Z,11.00
2018-12-22T18:13:21.867Z,11.00
2018-12-22T18:15:55.065Z,10.90
2018-12-22T18:18:23.363Z,10.90
2018-12-22T18:20:51.747Z,11.00
2018-12-22T18:23:21.075Z,11.10
2018-12-22T18:25:50.237Z,11.20
2018-12-22T18:28:18.491Z,11.20
2018-12-22T18:30:46.840Z,11.10
2018-12-22T18:33:16.495Z,11.10
2018-12-22T18:35:44.913Z,11.20
2018-12-22T18:38:13.586Z,11.10
2018-12-22T18:40:44.041Z,11.10
2018-12-22T18:43:12.403Z,11.00
2018-12-22T18:45:40.791Z,11.00
2018-12-22T18:48:11.975Z,11.10
2018-12-22T18:50:40.409Z,11.20
2018-12-22T18:53:09.007Z,11.30
2018-12-22T18:55:45.747Z,11.40
2018-12-22T18:58:14.432Z,11.40
2018-12-22T19:00:43.014Z,11.40
2018-12-22T19:03:14.357Z,11.30
2018-12-22T19:05:42.626Z,11.40
2018-12-22T19:08:10.920Z,11.50
2018-12-22T19:10:39.480Z,11.50
2018-12-22T19:13:09.851Z,11.50
2018-12-22T19:15:38.215Z,11.40
2018-12-22T19:18:06.615Z,11.40
2018-12-22T19:20:38.735Z,11.40
2018-12-22T19:23:07.891Z,11.30
2018-12-22T19:25:36.559Z,11.40
2018-12-22T19:28:05.123Z,11.50
2018-12-22T19:30:33.726Z,11.40
2018-12-22T19:33:02.138Z,11.30
2018-12-22T19:35:32.972Z,11.30
2018-12-22T19:38:01.296Z,11.40
2018-12-22T19:40:32.296Z,11.50
2018-12-22T19:43:01.110Z,11.50
2018-12-22T19:45:30.490Z,11.50
2018-12-22T19:47:58.802Z,11.40
2018-12-22T19:50:29.063Z,11.40
2018-12-22T19:52:57.330Z,11.40
2018-12-22T19:55:26.107Z,11.40
2018-12-22T19:57:58.511Z,11.40
2018-12-22T20:00:26.847Z,11.40
2018-12-22T20:02:57.085Z,11.40
2018-12-22T20:05:26.607Z,11.30
2018-12-22T20:07:55.997Z,11.30
2018-12-22T20:10:24.733Z,11.40
2018-12-22T20:12:53.174Z,11.40
2018-12-22T20:15:21.565Z,11.30
2018-12-22T20:17:52.142Z,11.30
2018-12-22T20:20:20.423Z,11.30
2018-12-22T20:22:48.685Z,11.30
2018-12-22T20:25:17.280Z,11.30
2018-12-22T20:27:45.603Z,11.30
2018-12-22T20:30:13.908Z,11.40
2018-12-22T20:32:44.382Z,11.50
2018-12-22T20:35:12.671Z,11.50
2018-12-22T20:37:41.142Z,11.50
2018-12-22T20:40:09.600Z,11.50
2018-12-22T20:42:38.226Z,11.50
2018-12-22T20:45:06.575Z,11.50
2018-12-22T20:47:35.118Z,11.50
2018-12-22T20:50:04.758Z,11.40
2018-12-22T20:52:34.180Z,11.40
2018-12-22T20:55:02.594Z,11.50
2018-12-22T20:57:31.132Z,11.50
2018-12-22T21:00:00.268Z,11.50
2018-12-22T21:02:28.619Z,11.50
2018-12-22T21:04:57.495Z,11.40
2018-12-22T21:07:29.883Z,11.30
2018-12-22T21:09:58.207Z,11.40
2018-12-22T21:12:27.662Z,11.30
2018-12-22T21:14:56.351Z,11.30
2018-12-22T21:17:24.851Z,11.20
2018-12-22T21:19:53.168Z,11.20
2018-12-22T21:22:24.059Z,11.20
2018-12-22T21:24:52.703Z,11.20
2018-12-22T21:27:21.241Z,11.10
2018-12-22T21:29:50.052Z,11.10
2018-12-22T21:32:19.581Z,11.20
2018-12-22T21:34:48.354Z,11.10
2018-12-22T21:37:17.254Z,11.10
2018-12-22T21:39:45.993Z,11.10
2018-12-22T21:42:14.931Z,11.10
2018-12-22T21:44:43.497Z,11.10
2018-12-22T21:47:13.478Z,11.10
2018-12-22T21:49:44.100Z,11.10
2018-12-22T21:52:12.826Z,11.10
2018-12-22T21:54:47.208Z,11.20
2018-12-22T21:57:15.921Z,11.10
2018-12-22T21:59:45.704Z,11.10
2018-12-22T22:02:16.325Z,11.10
2018-12-22T22:04:48.714Z,11.20
2018-12-22T22:07:18.717Z,11.20
2018-12-22T22:09:48.137Z,11.20
2018-12-22T22:12:17.259Z,11.20
2018-12-22T22:14:47.481Z,11.30
2018-12-22T22:17:16.125Z,11.30
2018-12-22T22:19:44.800Z,11.20
2018-12-22T22:22:13.517Z,11.30
2018-12-22T22:24:42.155Z,11.20
2018-12-22T22:27:10.893Z,11.20
2018-12-22T22:29:42.225Z,11.20
2018-12-22T22:32:13.443Z,11.20
2018-12-22T22:34:45.575Z,11.30
2018-12-22T22:37:12.632Z,11.20
2018-12-22T22:39:40.878Z,11.30
2018-12-22T22:42:09.151Z,11.20
2018-12-22T22:44:37.522Z,11.20
2018-12-22T22:47:05.813Z,11.20
2018-12-22T22:49:34.075Z,11.20
2018-12-22T22:52:02.386Z,11.20
2018-12-22T22:54:30.663Z,11.20
2018-12-22T22:56:59.446Z,11.20
2018-12-22T22:59:28.189Z,11.20
2018-12-22T23:01:56.447Z,11.20
2018-12-22T23:04:25.193Z,11.10
2018-12-22T23:06:53.559Z,11.20
2018-12-22T23:09:22.742Z,11.20
2018-12-22T23:11:51.011Z,11.20
2018-12-22T23:14:19.307Z,11.30
2018-12-22T23:16:47.566Z,11.20
2018-12-22T23:19:15.851Z,11.20
2018-12-22T23:21:44.798Z,11.20
2018-12-22T23:24:13.095Z,11.20
2018-12-22T23:26:41.680Z,11.20
2018-12-22T23:29:09.974Z,11.10
2018-12-22T23:31:39.543Z,11.10
2018-12-22T23:34:07.828Z,11.00
2018-12-22T23:36:36.135Z,11.00
2018-12-22T23:39:05.736Z,11.00
2018-12-22T23:41:33.998Z,11.00
2018-12-22T23:44:02.672Z,11.00
2018-12-22T23:46:30.935Z,11.00
2018-12-22T23:48:59.243Z,10.90
2018-12-22T23:51:27.583Z,10.80
2018-12-22T23:53:55.878Z,10.80
2018-12-22T23:56:24.212Z,10.80
2018-12-22T23:58:52.574Z,10.90
